Erie, Kansas
Current Conditions -  °F | °C
As of 8:52 PM on Sunday 23 Nov 2014 (Local Time) from KCNU Reporting Station
Light Rain Light Rain  
Wind Chill: 33°   Ceiling: 1700
Heat Index: 42°   Visibility: 10mi
Dew Point: 38°   Wind: 21mph
Humidity: 85%   Direction: 330°NNW
Pressure: 29.52"   Gusts: 37mph
Location:  37.57°N, 95.24°W
Report Text: KCNU 240252Z AUTO 33018G32KT 10SM -RA BKN017 BKN027 OVC060 06/03 A2952 RMK AO2 PK WND 34035/0224 SLP993 P0001 60003 T00560033 51037
Loading
Personal Weather Stations






























Interactive Weather Map New forecast layout! Learn more

10-Day Weather Forecast

Advertisements
Track Severe Weather on mobile